createdAt,value
2018-10-17T00:01:10.856Z,101057.23
2018-10-17T00:03:44.846Z,101059.85
2018-10-17T00:06:18.824Z,101053.86
2018-10-17T00:08:52.810Z,101060.77
2018-10-17T00:11:26.779Z,101053.55
2018-10-17T00:14:00.856Z,101057.91
2018-10-17T00:16:34.824Z,101059.69
2018-10-17T00:19:08.939Z,101063.69
2018-10-17T00:21:42.918Z,101056.94
2018-10-17T00:24:17.008Z,101058.40
2018-10-17T00:26:51.055Z,101056.77
2018-10-17T00:29:25.118Z,101055.27
2018-10-17T00:31:59.095Z,101057.98
2018-10-17T00:34:33.043Z,101057.25
2018-10-17T00:37:07.070Z,101051.36
2018-10-17T00:39:41.099Z,101055.05
2018-10-17T00:42:15.306Z,101059.53
2018-10-17T00:44:49.297Z,101057.51
2018-10-17T00:47:23.338Z,101061.92
2018-10-17T00:49:57.416Z,101059.45
2018-10-17T00:52:31.381Z,101062.57
2018-10-17T00:55:05.900Z,101059.19
2018-10-17T00:57:39.876Z,101051.18
2018-10-17T01:00:14.305Z,101059.42
2018-10-17T01:02:48.291Z,101061.77
2018-10-17T01:05:22.508Z,101057.17
2018-10-17T01:07:56.569Z,101057.30
2018-10-17T01:10:30.619Z,101050.96
2018-10-17T01:13:04.642Z,101051.96
2018-10-17T01:15:38.642Z,101052.50
2018-10-17T01:18:13.003Z,101056.45
2018-10-17T01:20:46.969Z,101055.39
2018-10-17T01:23:20.918Z,101058.09
2018-10-17T01:25:54.964Z,101051.36
2018-10-17T01:28:29.011Z,101045.09
2018-10-17T01:31:03.064Z,101046.08
2018-10-17T01:33:36.893Z,101044.88
2018-10-17T01:36:10.937Z,101038.16
2018-10-17T01:38:44.840Z,101044.38
2018-10-17T01:41:19.073Z,101043.66
2018-10-17T01:43:52.864Z,101044.66
2018-10-17T01:46:26.753Z,101046.41
2018-10-17T01:49:00.608Z,101044.38
2018-10-17T01:51:34.491Z,101043.19
2018-10-17T01:54:08.343Z,101041.66
2018-10-17T01:56:42.386Z,101044.31
2018-10-17T01:59:16.288Z,101038.06
2018-10-17T02:01:50.261Z,101038.56
2018-10-17T02:04:24.233Z,101037.01
2018-10-17T02:06:58.185Z,101043.97
2018-10-17T02:09:32.039Z,101038.96
2018-10-17T02:12:06.277Z,101043.32
2018-10-17T02:14:40.111Z,101037.81
2018-10-17T02:17:14.146Z,101039.58
2018-10-17T02:19:47.962Z,101038.80
2018-10-17T02:22:21.875Z,101035.47
2018-10-17T02:24:55.708Z,101034.22
2018-10-17T02:27:29.705Z,101033.87
2018-10-17T02:30:03.739Z,101024.16
2018-10-17T02:32:37.706Z,101030.27
2018-10-17T02:35:14.938Z,101033.42
2018-10-17T02:37:48.794Z,101036.00
2018-10-17T02:40:22.675Z,101030.09
2018-10-17T02:42:56.554Z,101034.11
2018-10-17T02:45:30.382Z,101028.30
2018-10-17T02:48:04.276Z,101033.14
2018-10-17T02:50:38.150Z,101037.52
2018-10-17T02:53:12.090Z,101041.05
2018-10-17T02:55:45.907Z,101039.83
2018-10-17T02:58:19.738Z,101039.01
2018-10-17T03:00:53.606Z,101042.59
2018-10-17T03:03:27.512Z,101038.77
2018-10-17T03:06:01.476Z,101030.36
2018-10-17T03:08:35.371Z,101032.55
2018-10-17T03:11:09.302Z,101030.95
2018-10-17T03:13:43.267Z,101027.56
2018-10-17T03:16:17.211Z,101032.33
2018-10-17T03:18:51.103Z,101023.86
2018-10-17T03:21:24.987Z,101023.55
2018-10-17T03:23:58.929Z,101026.56
2018-10-17T03:26:32.749Z,101022.83
2018-10-17T03:29:06.868Z,101021.13
2018-10-17T03:31:40.678Z,101024.13
2018-10-17T03:34:14.543Z,101028.75
2018-10-17T03:36:48.471Z,101032.59
2018-10-17T03:39:22.304Z,101034.00
2018-10-17T03:41:56.172Z,101035.34
2018-10-17T03:44:30.097Z,101031.14
2018-10-17T03:47:04.001Z,101035.03
2018-10-17T03:49:37.916Z,101043.64
2018-10-17T03:52:11.751Z,101040.23
2018-10-17T03:54:45.604Z,101041.59
2018-10-17T03:57:19.414Z,101039.45
2018-10-17T03:59:53.244Z,101040.80
2018-10-17T04:02:27.388Z,101040.87
2018-10-17T04:05:01.356Z,101045.23
2018-10-17T04:07:35.364Z,101051.64
2018-10-17T04:10:09.196Z,101048.27
2018-10-17T04:12:43.116Z,101052.96
2018-10-17T04:15:16.975Z,101044.43
2018-10-17T04:17:50.788Z,101051.35
2018-10-17T04:20:24.617Z,101053.59
2018-10-17T04:22:58.479Z,101057.01
2018-10-17T04:25:32.432Z,101053.61
2018-10-17T04:28:06.320Z,101049.80
2018-10-17T04:30:40.147Z,101048.59
2018-10-17T04:33:13.956Z,101050.27
2018-10-17T04:35:47.822Z,101058.01
2018-10-17T04:38:21.733Z,101055.89
2018-10-17T04:40:55.577Z,101052.44
2018-10-17T04:43:29.403Z,101051.16
2018-10-17T04:46:03.229Z,101057.52
2018-10-17T04:48:37.113Z,101051.99
2018-10-17T04:51:10.960Z,101051.59
2018-10-17T04:53:45.855Z,101052.89
2018-10-17T04:56:19.856Z,101048.77
2018-10-17T04:58:53.685Z,101059.47
2018-10-17T05:01:27.554Z,101052.62
2018-10-17T05:04:01.402Z,101055.24
2018-10-17T05:06:35.247Z,101053.98
2018-10-17T05:09:10.546Z,101049.73
2018-10-17T05:11:44.396Z,101051.97
2018-10-17T05:14:18.197Z,101052.88
2018-10-17T05:16:52.039Z,101055.43
2018-10-17T05:19:25.974Z,101055.94
2018-10-17T05:21:59.857Z,101055.14
2018-10-17T05:24:33.668Z,101058.98
2018-10-17T05:27:07.568Z,101054.27
2018-10-17T05:29:41.451Z,101059.78
2018-10-17T05:32:15.367Z,101057.66
2018-10-17T05:34:49.211Z,101058.17
2018-10-17T05:37:23.144Z,101060.33
2018-10-17T05:39:56.947Z,101057.83
2018-10-17T05:42:31.017Z,101062.52
2018-10-17T05:45:05.148Z,101061.23
2018-10-17T05:47:40.285Z,101062.52
2018-10-17T05:50:14.089Z,101056.95
2018-10-17T05:52:47.946Z,101062.56
2018-10-17T05:55:21.772Z,101067.20
2018-10-17T05:57:56.048Z,101061.30
2018-10-17T06:00:29.894Z,101067.69
2018-10-17T06:03:03.744Z,101064.69
2018-10-17T06:05:37.589Z,101066.36
2018-10-17T06:08:11.451Z,101068.03
2018-10-17T06:10:45.321Z,101068.02
2018-10-17T06:13:19.374Z,101067.96
2018-10-17T06:15:53.178Z,101067.96
2018-10-17T06:18:27.089Z,101068.75
2018-10-17T06:21:00.953Z,101073.00
2018-10-17T06:23:34.816Z,101077.27
2018-10-17T06:26:08.614Z,101078.48
2018-10-17T06:28:42.460Z,101079.77
2018-10-17T06:31:16.549Z,101079.78
2018-10-17T06:33:50.392Z,101086.58
2018-10-17T06:36:24.289Z,101079.67
2018-10-17T06:38:58.184Z,101077.54
2018-10-17T06:41:31.999Z,101078.33
2018-10-17T06:44:06.293Z,101070.18
2018-10-17T06:46:40.143Z,101075.20
2018-10-17T06:49:14.119Z,101068.71
2018-10-17T06:51:47.906Z,101074.11
2018-10-17T06:54:21.763Z,101073.55
2018-10-17T06:56:55.535Z,101072.95
2018-10-17T06:59:29.381Z,101069.30
2018-10-17T07:02:03.225Z,101072.05
2018-10-17T07:04:37.128Z,101069.29
2018-10-17T07:07:11.041Z,101072.03
2018-10-17T07:09:44.921Z,101066.63
2018-10-17T07:12:18.747Z,101066.02
2018-10-17T07:14:52.585Z,101064.09
2018-10-17T07:17:26.375Z,101063.44
2018-10-17T07:20:00.220Z,101066.22
2018-10-17T07:22:34.126Z,101067.23
2018-10-17T07:25:08.101Z,101071.30
2018-10-17T07:27:41.852Z,101072.65
2018-10-17T07:30:15.722Z,101070.20
2018-10-17T07:32:49.644Z,101079.42
2018-10-17T07:35:23.537Z,101079.86
2018-10-17T07:37:57.341Z,101078.17
2018-10-17T07:40:31.237Z,101087.66
2018-10-17T07:43:05.325Z,101092.86
2018-10-17T07:45:39.225Z,101093.38
2018-10-17T07:48:13.116Z,101096.86
2018-10-17T07:50:46.981Z,101098.55
2018-10-17T07:53:20.789Z,101098.43
2018-10-17T07:55:54.695Z,101098.81
2018-10-17T07:58:28.656Z,101091.01
2018-10-17T08:01:02.606Z,101097.71
2018-10-17T08:03:36.388Z,101103.50
2018-10-17T08:06:10.320Z,101100.44
2018-10-17T08:08:44.081Z,101103.42
2018-10-17T08:11:17.948Z,101098.70
2018-10-17T08:13:51.862Z,101101.33
2018-10-17T08:16:25.811Z,101103.05
2018-10-17T08:18:59.635Z,101100.44
2018-10-17T08:21:33.655Z,101107.03
2018-10-17T08:24:07.460Z,101109.66
2018-10-17T08:26:41.296Z,101097.11
2018-10-17T08:29:15.693Z,101096.94
2018-10-17T08:31:49.514Z,101099.30
2018-10-17T08:34:23.308Z,101099.06
2018-10-17T08:36:57.347Z,101099.73
2018-10-17T08:39:32.035Z,101100.61
2018-10-17T08:42:06.571Z,101101.42
2018-10-17T08:44:40.385Z,101102.20
2018-10-17T08:47:14.302Z,101105.09
2018-10-17T08:49:48.141Z,101100.12
2018-10-17T08:52:21.995Z,101101.17
2018-10-17T08:54:55.858Z,101095.64
2018-10-17T08:57:29.794Z,101092.33
2018-10-17T09:00:03.669Z,101086.73
2018-10-17T09:02:37.488Z,101087.56
2018-10-17T09:05:11.300Z,101084.00
2018-10-17T09:07:45.221Z,101079.66
2018-10-17T09:10:19.026Z,101079.27
2018-10-17T09:12:52.897Z,101081.20
2018-10-17T09:15:26.733Z,101080.26
2018-10-17T09:18:00.605Z,101081.45
2018-10-17T09:20:34.654Z,101076.98
2018-10-17T09:23:08.472Z,101078.02
2018-10-17T09:25:42.321Z,101070.18
2018-10-17T09:28:16.354Z,101066.84
2018-10-17T09:30:50.212Z,101068.81
2018-10-17T09:33:24.083Z,101064.84
2018-10-17T09:35:57.913Z,101064.45
2018-10-17T09:38:31.853Z,101061.41
2018-10-17T09:41:05.690Z,101059.53
2018-10-17T09:43:39.586Z,101056.05
2018-10-17T09:46:13.460Z,101055.45
2018-10-17T09:48:47.324Z,101063.34
2018-10-17T09:51:21.184Z,101067.13
2018-10-17T09:53:55.192Z,101066.94
2018-10-17T09:56:29.008Z,101061.08
2018-10-17T09:59:02.863Z,101061.88
2018-10-17T10:01:41.743Z,101060.48
2018-10-17T10:04:15.678Z,101059.34
2018-10-17T10:06:49.712Z,101053.95
2018-10-17T10:09:23.573Z,101050.17
2018-10-17T10:11:57.405Z,101054.20
2018-10-17T10:14:31.271Z,101050.49
2018-10-17T10:17:05.561Z,101062.73
2018-10-17T10:19:39.331Z,101053.22
2018-10-17T10:22:13.256Z,101045.77
2018-10-17T10:24:47.246Z,101053.60
2018-10-17T10:27:21.033Z,101043.99
2018-10-17T10:29:54.981Z,101045.80
2018-10-17T10:32:28.743Z,101045.50
2018-10-17T10:35:02.594Z,101043.28
2018-10-17T10:37:36.418Z,101043.06
2018-10-17T10:40:10.399Z,101048.88
2018-10-17T10:42:44.212Z,101052.53
2018-10-17T10:45:18.182Z,101049.36
2018-10-17T10:47:51.956Z,101049.77
2018-10-17T10:50:25.788Z,101048.27
2018-10-17T10:52:59.686Z,101048.50
2018-10-17T10:55:33.455Z,101046.00
2018-10-17T10:58:07.333Z,101044.70
2018-10-17T11:00:41.246Z,101043.45
2018-10-17T11:03:15.127Z,101044.64
2018-10-17T11:05:49.187Z,101035.86
2018-10-17T11:08:22.914Z,101030.57
2018-10-17T11:10:56.881Z,101031.11
2018-10-17T11:13:30.678Z,101032.64
2018-10-17T11:16:04.601Z,101027.59
2018-10-17T11:18:38.688Z,101026.83
2018-10-17T11:21:12.547Z,101024.05
2018-10-17T11:23:46.443Z,101020.64
2018-10-17T11:26:20.279Z,101014.47
2018-10-17T11:28:54.209Z,101019.44
2018-10-17T11:31:28.123Z,101012.68
2018-10-17T11:34:01.963Z,101015.42
2018-10-17T11:36:35.921Z,101009.97
2018-10-17T11:39:10.974Z,101009.62
2018-10-17T11:41:44.827Z,101009.51
2018-10-17T11:44:18.673Z,101004.44
2018-10-17T11:46:52.590Z,101000.08
2018-10-17T11:49:26.399Z,101009.37
2018-10-17T11:52:00.249Z,101006.73
2018-10-17T11:54:34.118Z,101003.30
2018-10-17T11:57:08.153Z,100998.06
2018-10-17T11:59:42.000Z,101005.29
2018-10-17T12:02:15.907Z,101001.45
2018-10-17T12:04:49.904Z,100995.42
2018-10-17T12:07:23.593Z,100989.03
2018-10-17T12:09:57.403Z,100992.39
2018-10-17T12:12:31.260Z,100995.22
2018-10-17T12:15:06.824Z,100989.20
2018-10-17T12:17:41.355Z,100990.30
2018-10-17T12:20:15.853Z,100988.84
2018-10-17T12:22:50.913Z,100993.39
2018-10-17T12:25:24.714Z,100981.16
2018-10-17T12:27:58.601Z,100975.34
2018-10-17T12:30:32.429Z,100971.06
2018-10-17T12:33:06.515Z,100972.13
2018-10-17T12:35:40.309Z,100973.22
2018-10-17T12:38:14.150Z,100978.68
2018-10-17T12:40:48.021Z,100969.06
2018-10-17T12:43:21.793Z,100972.27
2018-10-17T12:45:55.601Z,100972.12
2018-10-17T12:48:29.454Z,100973.80
2018-10-17T12:51:03.276Z,100974.03
2018-10-17T12:53:37.219Z,100974.49
2018-10-17T12:56:11.013Z,100969.14
2018-10-17T12:58:44.900Z,100967.83
2018-10-17T13:01:18.760Z,100959.86
2018-10-17T13:03:52.606Z,100960.09
2018-10-17T13:06:26.444Z,100963.55
2018-10-17T13:09:00.401Z,100961.27
2018-10-17T13:11:34.330Z,100959.12
2018-10-17T13:14:08.164Z,100959.47
2018-10-17T13:16:41.978Z,100956.73
2018-10-17T13:19:15.959Z,100952.46
2018-10-17T13:21:49.780Z,100950.20
2018-10-17T13:24:23.702Z,100949.50
2018-10-17T13:26:57.491Z,100950.72
2018-10-17T13:29:31.451Z,100953.21
2018-10-17T13:32:05.422Z,100951.91
2018-10-17T13:34:39.367Z,100955.34
2018-10-17T13:37:13.237Z,100955.25
2018-10-17T13:39:47.093Z,100948.97
2018-10-17T13:42:20.988Z,100948.11
2018-10-17T13:44:54.793Z,100950.59
2018-10-17T13:47:28.633Z,100949.88
2018-10-17T13:50:02.519Z,100950.83
2018-10-17T13:52:36.313Z,100951.56
2018-10-17T13:55:10.173Z,100952.51
2018-10-17T13:57:44.019Z,100955.95
2018-10-17T14:00:18.060Z,100946.20
2018-10-17T14:02:51.835Z,100949.67
2018-10-17T14:05:25.798Z,100944.77
2018-10-17T14:07:59.842Z,100947.70
2018-10-17T14:10:33.761Z,100939.17
2018-10-17T14:13:07.633Z,100942.48
2018-10-17T14:15:42.989Z,100943.28
2018-10-17T14:18:17.026Z,100946.72
2018-10-17T14:20:50.854Z,100944.81
2018-10-17T14:23:25.164Z,100949.69
2018-10-17T14:25:58.984Z,100948.38
2018-10-17T14:28:32.890Z,100950.03
2018-10-17T14:31:06.704Z,100951.72
2018-10-17T14:33:40.551Z,100948.38
2018-10-17T14:36:14.447Z,100949.08
2018-10-17T14:38:48.153Z,100947.07
2018-10-17T14:41:22.045Z,100947.80
2018-10-17T14:43:55.901Z,100950.77
2018-10-17T14:46:29.710Z,100955.99
2018-10-17T14:49:03.677Z,100959.30
2018-10-17T14:51:37.523Z,100956.56
2018-10-17T14:54:11.441Z,100955.83
2018-10-17T14:56:45.279Z,100957.83
2018-10-17T14:59:19.359Z,100958.44
2018-10-17T15:01:53.738Z,100956.97
2018-10-17T15:04:27.633Z,100961.48
2018-10-17T15:07:01.478Z,100964.67
2018-10-17T15:09:35.385Z,100971.53
2018-10-17T15:12:09.265Z,100963.31
2018-10-17T15:14:43.157Z,100970.72
2018-10-17T15:17:16.939Z,100974.84
2018-10-17T15:19:50.872Z,100966.13
2018-10-17T15:22:24.678Z,100971.97
2018-10-17T15:24:58.530Z,100973.82
2018-10-17T15:27:32.379Z,100968.14
2018-10-17T15:30:07.405Z,100968.77
2018-10-17T15:32:41.221Z,100977.33
2018-10-17T15:35:15.045Z,100973.92
2018-10-17T15:37:48.851Z,100975.75
2018-10-17T15:40:22.723Z,100978.41
2018-10-17T15:42:56.655Z,100970.38
2018-10-17T15:45:30.565Z,100969.23
2018-10-17T15:48:04.436Z,100973.86
2018-10-17T15:50:38.293Z,100973.63
2018-10-17T15:53:12.248Z,100973.86
2018-10-17T15:55:45.991Z,100981.88
2018-10-17T15:58:19.846Z,100976.26
2018-10-17T16:00:53.716Z,100980.97
2018-10-17T16:03:27.613Z,100975.23
2018-10-17T16:06:01.539Z,100975.85
2018-10-17T16:08:35.370Z,100976.71
2018-10-17T16:11:09.197Z,100966.72
2018-10-17T16:13:42.998Z,100975.59
2018-10-17T16:16:16.860Z,100973.64
2018-10-17T16:18:50.659Z,100966.69
2018-10-17T16:21:24.479Z,100976.68
2018-10-17T16:23:58.343Z,100968.63
2018-10-17T16:26:32.213Z,100971.19
2018-10-17T16:29:06.147Z,100962.55
2018-10-17T16:31:40.139Z,100965.74
2018-10-17T16:34:13.956Z,100976.30
2018-10-17T16:36:47.888Z,100976.91
2018-10-17T16:39:21.726Z,100976.03
2018-10-17T16:41:55.581Z,100975.25
2018-10-17T16:44:29.521Z,100979.48
2018-10-17T16:47:03.405Z,100989.59
2018-10-17T16:49:37.230Z,100991.84
2018-10-17T16:52:11.099Z,100990.98
2018-10-17T16:54:44.921Z,100993.89
2018-10-17T16:57:18.791Z,100997.90
2018-10-17T16:59:52.592Z,100996.41
2018-10-17T17:02:26.549Z,100995.62
2018-10-17T17:05:00.422Z,101000.44
2018-10-17T17:07:34.257Z,101002.08
2018-10-17T17:10:09.797Z,101008.71
2018-10-17T17:12:43.943Z,101005.65
2018-10-17T17:15:17.885Z,101006.41
2018-10-17T17:17:51.709Z,101010.69
2018-10-17T17:20:25.555Z,101019.68
2018-10-17T17:22:59.803Z,101020.13
2018-10-17T17:25:33.621Z,101019.06
2018-10-17T17:28:08.394Z,101014.27
2018-10-17T17:30:42.217Z,101016.77
2018-10-17T17:33:16.149Z,101026.95
2018-10-17T17:35:49.951Z,101025.20
2018-10-17T17:38:23.879Z,101025.16
2018-10-17T17:40:57.684Z,101028.06
2018-10-17T17:43:31.537Z,101027.61
2018-10-17T17:46:05.668Z,101026.27
2018-10-17T17:48:39.589Z,101030.73
2018-10-17T17:51:13.608Z,101032.30
2018-10-17T17:53:47.429Z,101025.72
2018-10-17T17:56:21.269Z,101031.11
2018-10-17T17:58:55.133Z,101026.72
2018-10-17T18:01:29.173Z,101024.30
2018-10-17T18:04:03.568Z,101023.19
2018-10-17T18:06:37.527Z,101026.44
2018-10-17T18:09:12.822Z,101027.21
2018-10-17T18:11:46.710Z,101031.75
2018-10-17T18:14:20.742Z,101030.27
2018-10-17T18:16:54.620Z,101026.59
2018-10-17T18:19:28.505Z,101031.27
2018-10-17T18:22:02.531Z,101029.73
2018-10-17T18:24:36.417Z,101026.06
2018-10-17T18:27:10.250Z,101033.23
2018-10-17T18:29:44.267Z,101031.42
2018-10-17T18:32:18.261Z,101036.84
2018-10-17T18:34:52.124Z,101040.12
2018-10-17T18:37:25.931Z,101039.91
2018-10-17T18:39:59.981Z,101047.77
2018-10-17T18:42:33.798Z,101048.80
2018-10-17T18:45:07.755Z,101047.45
2018-10-17T18:47:41.747Z,101048.02
2018-10-17T18:50:15.738Z,101050.79
2018-10-17T18:52:49.636Z,101054.89
2018-10-17T18:55:23.590Z,101062.07
2018-10-17T18:57:57.427Z,101065.22
2018-10-17T19:00:31.463Z,101062.79
2018-10-17T19:03:06.010Z,101066.36
2018-10-17T19:05:39.926Z,101067.34
2018-10-17T19:08:13.811Z,101070.48
2018-10-17T19:10:47.693Z,101071.05
2018-10-17T19:13:21.498Z,101069.04
2018-10-17T19:15:55.415Z,101074.31
2018-10-17T19:18:29.252Z,101074.00
2018-10-17T19:21:03.334Z,101073.31
2018-10-17T19:23:37.244Z,101074.81
2018-10-17T19:26:11.089Z,101078.38
2018-10-17T19:28:44.899Z,101078.59
2018-10-17T19:31:18.836Z,101084.23
2018-10-17T19:33:52.730Z,101092.08
2018-10-17T19:36:26.662Z,101088.34
2018-10-17T19:39:00.499Z,101084.69
2018-10-17T19:41:34.567Z,101095.03
2018-10-17T19:44:08.387Z,101093.53
2018-10-17T19:46:42.336Z,101091.90
2018-10-17T19:49:16.905Z,101093.29
2018-10-17T19:51:50.868Z,101099.00
2018-10-17T19:54:24.671Z,101098.72
2018-10-17T19:56:58.733Z,101097.98
2018-10-17T19:59:32.634Z,101099.44
2018-10-17T20:02:07.787Z,101102.02
2018-10-17T20:04:41.494Z,101099.54
2018-10-17T20:07:15.452Z,101098.34
2018-10-17T20:09:49.348Z,101100.67
2018-10-17T20:12:23.317Z,101105.09
2018-10-17T20:14:57.136Z,101106.98
2018-10-17T20:17:31.128Z,101110.56
2018-10-17T20:20:05.540Z,101113.23
2018-10-17T20:22:39.464Z,101108.57
2018-10-17T20:25:13.334Z,101111.24
2018-10-17T20:27:47.213Z,101109.56
2018-10-17T20:30:21.022Z,101113.55
2018-10-17T20:32:54.992Z,101116.51
2018-10-17T20:35:28.878Z,101118.58
2018-10-17T20:38:02.875Z,101120.34
2018-10-17T20:40:36.718Z,101118.31
2018-10-17T20:43:10.715Z,101118.86
2018-10-17T20:45:44.533Z,101115.54
2018-10-17T20:48:18.532Z,101110.91
2018-10-17T20:50:52.449Z,101119.07
2018-10-17T20:53:26.412Z,101119.16
2018-10-17T20:56:00.245Z,101121.37
2018-10-17T20:58:34.148Z,101118.95
2018-10-17T21:01:07.941Z,101120.27
2018-10-17T21:03:41.761Z,101122.92
2018-10-17T21:06:15.590Z,101128.61
2018-10-17T21:08:49.708Z,101124.11
2018-10-17T21:11:23.594Z,101130.21
2018-10-17T21:13:57.450Z,101129.88
2018-10-17T21:16:31.304Z,101126.95
2018-10-17T21:19:05.278Z,101120.58
2018-10-17T21:21:39.252Z,101130.05
2018-10-17T21:24:13.421Z,101126.64
2018-10-17T21:26:47.336Z,101130.19
2018-10-17T21:29:21.273Z,101135.86
2018-10-17T21:31:55.162Z,101131.64
2018-10-17T21:34:29.272Z,101133.41
2018-10-17T21:37:03.168Z,101130.05
2018-10-17T21:39:37.262Z,101125.02
2018-10-17T21:42:11.062Z,101135.36
2018-10-17T21:44:44.976Z,101129.46
2018-10-17T21:47:18.890Z,101133.01
2018-10-17T21:49:52.750Z,101138.17
2018-10-17T21:52:26.605Z,101134.45
2018-10-17T21:55:00.657Z,101132.77
2018-10-17T21:57:34.523Z,101128.16
2018-10-17T22:00:10.075Z,101127.39
2018-10-17T22:02:43.897Z,101128.34
2018-10-17T22:05:17.775Z,101130.16
2018-10-17T22:07:51.661Z,101125.09
2018-10-17T22:10:25.546Z,101125.95
2018-10-17T22:12:59.367Z,101121.78
2018-10-17T22:15:33.404Z,101124.48
2018-10-17T22:18:07.291Z,101134.45
2018-10-17T22:20:41.139Z,101126.84
2018-10-17T22:23:14.960Z,101129.92
2018-10-17T22:25:48.889Z,101138.13
2018-10-17T22:28:22.695Z,101137.36
2018-10-17T22:30:56.575Z,101140.83
2018-10-17T22:33:30.358Z,101138.33
2018-10-17T22:36:04.339Z,101139.56
2018-10-17T22:38:38.360Z,101146.89
2018-10-17T22:41:12.436Z,101145.68
2018-10-17T22:43:46.348Z,101148.77
2018-10-17T22:46:20.364Z,101148.05
2018-10-17T22:48:54.261Z,101149.45
2018-10-17T22:51:28.215Z,101150.74
2018-10-17T22:54:02.183Z,101148.25
2018-10-17T22:56:36.270Z,101145.75
2018-10-17T22:59:10.239Z,101150.90
2018-10-17T23:01:44.375Z,101149.27
2018-10-17T23:04:18.406Z,101146.66
2018-10-17T23:06:52.376Z,101136.06
2018-10-17T23:09:26.267Z,101135.73
2018-10-17T23:12:00.186Z,101134.58
2018-10-17T23:14:34.080Z,101135.50
2018-10-17T23:17:07.974Z,101136.45
2018-10-17T23:19:41.767Z,101137.85
2018-10-17T23:22:15.736Z,101138.31
2018-10-17T23:24:49.559Z,101140.95
2018-10-17T23:27:23.463Z,101143.50
2018-10-17T23:29:57.296Z,101139.25
2018-10-17T23:32:31.229Z,101138.43
2018-10-17T23:35:05.445Z,101146.20
2018-10-17T23:37:39.286Z,101137.77
2018-10-17T23:40:13.110Z,101139.56
2018-10-17T23:42:47.020Z,101147.72
2018-10-17T23:45:20.893Z,101137.08
2018-10-17T23:47:54.839Z,101146.55
2018-10-17T23:50:32.387Z,101140.58
2018-10-17T23:53:06.668Z,101139.70
2018-10-17T23:55:40.498Z,101139.78
2018-10-17T23:58:14.459Z,101142.41
